createdAt,value
2019-04-18T00:00:38.936Z,100066.53
2019-04-18T00:03:19.192Z,100057.37
2019-04-18T00:05:47.968Z,100062.91
2019-04-18T00:08:15.231Z,100066.79
2019-04-18T00:10:42.688Z,100057.27
2019-04-18T00:13:09.537Z,100062.91
2019-04-18T00:15:39.026Z,100054.41
2019-04-18T00:18:08.576Z,100056.92
2019-04-18T00:20:35.292Z,100058.75
2019-04-18T00:23:02.637Z,100057.18
2019-04-18T00:25:29.594Z,100060.84
2019-04-18T00:27:57.691Z,100063.89
2019-04-18T00:30:25.731Z,100055.39
2019-04-18T00:32:55.244Z,100055.67
2019-04-18T00:35:22.086Z,100062.27
2019-04-18T00:37:49.597Z,100064.34
2019-04-18T00:40:17.338Z,100071.53
2019-04-18T00:42:44.782Z,99837.03
2019-04-18T00:45:15.026Z,100062.95
2019-04-18T00:47:42.841Z,100062.30
2019-04-18T00:50:10.599Z,100061.00
2019-04-18T00:52:38.268Z,100071.74
2019-04-18T00:55:06.196Z,100063.52
2019-04-18T00:57:32.958Z,100072.12
2019-04-18T01:00:00.970Z,100064.40
2019-04-18T01:02:28.674Z,100067.45
2019-04-18T01:04:55.489Z,100065.97
2019-04-18T01:07:22.334Z,100064.45
2019-04-18T01:09:49.763Z,100082.80
2019-04-18T01:12:17.399Z,100066.02
2019-04-18T01:14:45.866Z,100072.25
2019-04-18T01:17:13.984Z,100078.75
2019-04-18T01:19:41.469Z,100077.53
2019-04-18T01:22:14.314Z,100071.41
2019-04-18T01:24:39.028Z,100075.13
2019-04-18T01:27:06.759Z,100078.22
2019-04-18T01:29:34.384Z,100073.28
2019-04-18T01:32:01.541Z,100072.25
2019-04-18T01:34:41.115Z,100071.22
2019-04-18T01:37:00.796Z,100067.94
2019-04-18T01:39:27.750Z,100066.88
2019-04-18T01:42:05.954Z,100072.05
2019-04-18T01:44:34.820Z,100073.34
2019-04-18T01:47:01.838Z,100074.29
2019-04-18T01:49:28.904Z,100075.94
2019-04-18T01:51:56.320Z,100071.87
2019-04-18T01:54:23.861Z,100082.38
2019-04-18T01:56:55.466Z,100081.86
2019-04-18T01:59:20.681Z,100078.21
2019-04-18T02:01:47.698Z,100084.44
2019-04-18T02:04:15.420Z,100083.30
2019-04-18T02:06:42.891Z,100090.11
2019-04-18T02:09:10.803Z,100090.97
2019-04-18T02:11:38.885Z,100082.32
2019-04-18T02:14:06.453Z,99842.08
2019-04-18T02:16:33.613Z,100092.06
2019-04-18T02:19:00.918Z,100092.92
2019-04-18T02:21:28.687Z,100095.99
2019-04-18T02:23:56.102Z,100093.33
2019-04-18T02:26:25.328Z,100093.63
2019-04-18T02:28:53.115Z,100095.44
2019-04-18T02:31:21.007Z,100094.31
2019-04-18T02:33:48.145Z,100091.42
2019-04-18T02:36:15.204Z,100100.14
2019-04-18T02:38:42.729Z,100100.98
2019-04-18T02:41:12.444Z,100094.34
2019-04-18T02:43:38.692Z,100095.53
2019-04-18T02:46:10.541Z,100099.51
2019-04-18T02:48:35.137Z,100118.84
2019-04-18T02:51:03.206Z,100169.17
2019-04-18T02:53:32.270Z,100101.12
2019-04-18T02:56:07.969Z,100112.59
2019-04-18T02:58:42.483Z,100102.56
2019-04-18T03:01:27.763Z,100104.56
2019-04-18T03:04:00.790Z,100113.88
2019-04-18T03:06:28.847Z,100109.53
2019-04-18T03:08:59.673Z,100109.20
2019-04-18T03:11:26.386Z,100117.29
2019-04-18T03:13:54.051Z,100113.14
2019-04-18T03:16:24.583Z,100112.98
2019-04-18T03:18:51.496Z,100118.92
2019-04-18T03:21:18.327Z,100112.45
2019-04-18T03:23:46.042Z,100113.04
2019-04-18T03:26:14.265Z,100103.62
2019-04-18T03:28:42.996Z,100110.59
2019-04-18T03:31:21.556Z,100116.17
2019-04-18T03:33:44.380Z,100115.64
2019-04-18T03:36:10.380Z,100119.20
2019-04-18T03:38:37.902Z,100120.23
2019-04-18T03:41:06.041Z,100123.81
2019-04-18T03:43:33.829Z,100133.54
2019-04-18T03:46:06.009Z,100139.31
2019-04-18T03:48:35.176Z,100141.54
2019-04-18T03:51:05.554Z,100140.38
2019-04-18T03:53:32.858Z,100148.08
2019-04-18T03:56:00.915Z,100147.12
2019-04-18T03:58:28.941Z,100150.47
2019-04-18T04:00:57.947Z,100157.00
2019-04-18T04:03:25.906Z,100149.34
2019-04-18T04:06:04.386Z,100150.52
2019-04-18T04:08:21.776Z,100159.05
2019-04-18T04:10:49.378Z,100165.59
2019-04-18T04:13:17.055Z,100121.80
2019-04-18T04:15:47.010Z,100169.23
2019-04-18T04:18:21.599Z,100176.14
2019-04-18T04:20:49.131Z,100171.58
2019-04-18T04:23:17.074Z,100177.35
2019-04-18T04:25:43.790Z,100178.95
2019-04-18T04:28:11.101Z,99939.92
2019-04-18T04:30:38.645Z,100179.96
2019-04-18T04:33:05.798Z,100185.14
2019-04-18T04:35:32.845Z,100259.66
2019-04-18T04:37:59.897Z,100183.61
2019-04-18T04:40:29.352Z,100179.67
2019-04-18T04:42:56.104Z,100185.78
2019-04-18T04:45:22.979Z,100186.56
2019-04-18T04:47:52.012Z,100186.31
2019-04-18T04:50:45.224Z,100186.52
2019-04-18T04:53:12.863Z,100192.20
2019-04-18T04:55:41.890Z,100192.58
2019-04-18T04:58:30.188Z,100198.27
2019-04-18T05:00:57.878Z,100205.54
2019-04-18T05:03:25.427Z,100213.98
2019-04-18T05:05:52.386Z,100207.09
2019-04-18T05:08:19.428Z,100217.13
2019-04-18T05:10:47.958Z,100213.52
2019-04-18T05:13:16.111Z,100214.48
2019-04-18T05:15:43.348Z,100214.64
2019-04-18T05:18:11.498Z,100217.94
2019-04-18T05:20:39.103Z,100218.64
2019-04-18T05:23:06.812Z,100230.68
2019-04-18T05:25:34.330Z,100232.94
2019-04-18T05:28:01.252Z,99984.57
2019-04-18T05:30:27.953Z,99972.38
2019-04-18T05:32:55.562Z,100227.02
2019-04-18T05:35:24.543Z,100233.63
2019-04-18T05:37:52.506Z,100229.17
2019-04-18T05:40:29.033Z,100227.84
2019-04-18T05:42:56.255Z,100235.27
2019-04-18T05:45:25.004Z,100224.48
2019-04-18T05:47:53.923Z,100231.11
2019-04-18T05:50:25.485Z,100233.56
2019-04-18T05:53:00.195Z,100238.18
2019-04-18T05:55:25.871Z,100235.09
2019-04-18T05:57:55.285Z,100237.94
2019-04-18T06:00:40.490Z,100241.93
2019-04-18T06:03:09.183Z,100249.31
2019-04-18T06:05:50.409Z,100240.19
2019-04-18T06:08:18.283Z,100249.12
2019-04-18T06:10:49.906Z,100247.61
2019-04-18T06:13:16.383Z,100245.47
2019-04-18T06:15:57.721Z,100251.45
2019-04-18T06:18:29.131Z,100254.16
2019-04-18T06:20:59.213Z,100256.36
2019-04-18T06:23:26.972Z,100265.84
2019-04-18T06:25:59.091Z,100269.16
2019-04-18T06:28:36.841Z,100259.75
2019-04-18T06:31:14.531Z,100257.79
2019-04-18T06:33:43.825Z,100277.03
2019-04-18T06:36:11.699Z,100260.42
2019-04-18T06:38:39.151Z,100257.91
2019-04-18T06:41:07.786Z,100265.47
2019-04-18T06:43:35.367Z,100263.22
2019-04-18T06:46:02.362Z,100259.26
2019-04-18T06:48:35.410Z,100274.86
2019-04-18T06:50:58.988Z,100264.98
2019-04-18T06:53:25.949Z,100265.34
2019-04-18T06:55:53.517Z,100269.08
2019-04-18T06:58:33.680Z,100254.25
2019-04-18T07:00:49.931Z,100265.84
2019-04-18T07:03:20.888Z,100260.63
2019-04-18T07:05:46.431Z,100264.77
2019-04-18T07:08:27.237Z,100037.75
2019-04-18T07:11:03.871Z,100269.70
2019-04-18T07:13:37.186Z,100274.50
2019-04-18T07:16:02.388Z,100294.98
2019-04-18T07:18:29.750Z,100273.88
2019-04-18T07:21:03.348Z,100268.35
2019-04-18T07:23:35.554Z,100266.34
2019-04-18T07:26:02.831Z,100267.27
2019-04-18T07:28:29.821Z,100257.75
2019-04-18T07:30:57.472Z,100072.38
2019-04-18T07:33:24.436Z,100260.92
2019-04-18T07:35:51.885Z,100260.50
2019-04-18T07:38:22.865Z,100258.97
2019-04-18T07:40:47.592Z,100257.74
2019-04-18T07:43:14.441Z,100264.77
2019-04-18T07:45:41.586Z,100261.05
2019-04-18T07:48:08.433Z,100268.98
2019-04-18T07:50:35.279Z,100266.47
2019-04-18T07:53:02.111Z,100264.87
2019-04-18T07:55:34.499Z,100262.97
2019-04-18T07:58:01.714Z,100270.34
2019-04-18T08:00:30.794Z,100266.78
2019-04-18T08:02:58.039Z,100262.80
2019-04-18T08:05:24.862Z,100258.13
2019-04-18T08:07:51.679Z,100263.82
2019-04-18T08:10:24.772Z,100259.66
2019-04-18T08:12:47.399Z,100255.42
2019-04-18T08:15:14.389Z,100262.46
2019-04-18T08:17:43.417Z,100269.00
2019-04-18T08:20:12.449Z,100108.56
2019-04-18T08:22:39.336Z,100265.00
2019-04-18T08:25:07.422Z,100264.28
2019-04-18T08:27:36.147Z,100268.80
2019-04-18T08:30:06.623Z,100268.21
2019-04-18T08:32:33.733Z,100266.82
2019-04-18T08:35:00.771Z,100256.64
2019-04-18T08:37:29.423Z,100262.02
2019-04-18T08:40:00.553Z,100270.67
2019-04-18T08:42:38.520Z,100271.20
2019-04-18T08:45:10.615Z,100255.27
2019-04-18T08:47:37.499Z,100262.30
2019-04-18T08:50:09.775Z,100261.76
2019-04-18T08:52:36.708Z,100259.52
2019-04-18T08:55:21.256Z,100254.09
2019-04-18T08:57:45.577Z,100255.47
2019-04-18T09:00:14.062Z,100253.55
2019-04-18T09:02:41.239Z,100115.63
2019-04-18T09:05:17.932Z,100256.12
2019-04-18T09:07:37.484Z,100257.48
2019-04-18T09:10:09.572Z,100255.30
2019-04-18T09:12:38.579Z,100256.10
2019-04-18T09:15:08.966Z,100249.45
2019-04-18T09:17:37.311Z,100254.84
2019-04-18T09:20:11.737Z,100245.98
2019-04-18T09:22:35.103Z,100247.02
2019-04-18T09:25:03.221Z,100250.45
2019-04-18T09:27:32.286Z,100248.30
2019-04-18T09:30:05.842Z,100233.23
2019-04-18T09:32:29.123Z,100239.85
2019-04-18T09:34:56.047Z,100240.09
2019-04-18T09:37:22.872Z,100229.98
2019-04-18T09:39:51.637Z,100232.98
2019-04-18T09:42:18.831Z,100228.74
2019-04-18T09:44:49.343Z,100230.26
2019-04-18T09:47:18.358Z,100255.67
2019-04-18T09:49:43.823Z,100232.65
2019-04-18T09:52:11.193Z,100243.14
2019-04-18T09:54:38.889Z,100222.94
2019-04-18T09:57:05.920Z,100230.00
2019-04-18T09:59:32.668Z,100214.02
2019-04-18T10:01:59.825Z,100226.84
2019-04-18T10:04:26.948Z,100214.83
2019-04-18T10:06:53.878Z,100226.34
2019-04-18T10:09:21.567Z,100206.55
2019-04-18T10:11:50.870Z,100203.75
2019-04-18T10:14:17.579Z,100055.17
2019-04-18T10:16:44.566Z,100207.92
2019-04-18T10:19:11.619Z,100069.71
2019-04-18T10:21:40.310Z,100197.34
2019-04-18T10:24:07.142Z,100184.45
2019-04-18T10:26:54.025Z,100183.25
2019-04-18T10:29:22.904Z,100184.50
2019-04-18T10:31:50.648Z,100194.25
2019-04-18T10:34:18.492Z,100171.92
2019-04-18T10:36:45.339Z,100178.37
2019-04-18T10:39:12.541Z,100191.92
2019-04-18T10:41:39.452Z,100172.32
2019-04-18T10:44:07.046Z,100173.61
2019-04-18T10:46:33.950Z,100169.27
2019-04-18T10:49:01.726Z,100172.28
2019-04-18T10:51:28.630Z,100171.75
2019-04-18T10:53:56.036Z,100168.48
2019-04-18T10:56:23.425Z,100188.33
2019-04-18T10:58:52.721Z,100173.22
2019-04-18T11:01:20.075Z,100173.56
2019-04-18T11:03:47.247Z,100170.91
2019-04-18T11:06:20.054Z,100167.84
2019-04-18T11:08:42.776Z,100180.55
2019-04-18T11:11:10.202Z,100161.75
2019-04-18T11:13:37.447Z,100158.85
2019-04-18T11:16:04.278Z,100158.56
2019-04-18T11:18:31.676Z,100150.76
2019-04-18T11:20:58.565Z,100162.51
2019-04-18T11:23:28.324Z,100158.05
2019-04-18T11:25:55.530Z,100170.49
2019-04-18T11:28:23.173Z,100147.55
2019-04-18T11:30:58.804Z,100141.98
2019-04-18T11:33:19.095Z,100151.34
2019-04-18T11:35:45.976Z,100153.53
2019-04-18T11:38:13.499Z,100009.11
2019-04-18T11:40:42.233Z,100147.42
2019-04-18T11:43:09.434Z,100156.64
2019-04-18T11:45:36.175Z,100013.45
2019-04-18T11:48:03.107Z,100142.20
2019-04-18T11:50:29.976Z,100007.73
2019-04-18T11:52:56.967Z,100150.33
2019-04-18T11:55:24.540Z,100142.86
2019-04-18T11:57:51.394Z,100139.25
2019-04-18T12:00:22.901Z,100138.58
2019-04-18T12:02:52.040Z,99995.80
2019-04-18T12:05:23.470Z,100134.38
2019-04-18T12:07:50.324Z,100130.82
2019-04-18T12:10:18.177Z,100124.83
2019-04-18T12:12:47.814Z,99968.73
2019-04-18T12:15:15.526Z,100124.78
2019-04-18T12:17:44.430Z,100124.84
2019-04-18T12:20:11.615Z,100117.52
2019-04-18T12:22:38.916Z,100130.64
2019-04-18T12:25:09.756Z,100121.88
2019-04-18T12:27:35.130Z,100109.97
2019-04-18T12:30:03.244Z,100121.69
2019-04-18T12:32:29.982Z,100117.75
2019-04-18T12:34:56.937Z,100116.24
2019-04-18T12:37:24.264Z,100128.62
2019-04-18T12:39:51.412Z,100111.85
2019-04-18T12:42:19.008Z,100108.13
2019-04-18T12:44:46.756Z,100104.09
2019-04-18T12:47:14.395Z,100106.00
2019-04-18T12:49:41.383Z,100102.53
2019-04-18T12:52:13.646Z,100099.59
2019-04-18T12:54:37.704Z,100091.05
2019-04-18T12:57:04.797Z,100090.28
2019-04-18T12:59:32.189Z,100093.67
2019-04-18T13:02:00.009Z,100093.20
2019-04-18T13:04:27.205Z,100080.42
2019-04-18T13:06:54.157Z,100092.88
2019-04-18T13:09:34.994Z,100084.15
2019-04-18T13:12:15.527Z,100081.00
2019-04-18T13:14:54.246Z,100077.41
2019-04-18T13:17:35.302Z,100089.20
2019-04-18T13:20:04.397Z,100073.47
2019-04-18T13:22:31.168Z,100075.66
2019-04-18T13:24:58.033Z,100075.66
2019-04-18T13:27:25.291Z,100068.55
2019-04-18T13:29:52.105Z,100067.34
2019-04-18T13:32:18.903Z,100072.05
2019-04-18T13:34:45.962Z,100076.16
2019-04-18T13:37:12.699Z,100061.08
2019-04-18T13:39:39.436Z,100072.39
2019-04-18T13:42:06.863Z,100059.91
2019-04-18T13:44:34.364Z,100072.08
2019-04-18T13:47:01.866Z,100070.36
2019-04-18T13:49:28.762Z,100064.61
2019-04-18T13:51:56.784Z,100079.76
2019-04-18T13:54:23.579Z,100061.59
2019-04-18T13:56:50.343Z,100071.75
2019-04-18T13:59:17.516Z,100064.05
2019-04-18T14:01:44.345Z,100058.27
2019-04-18T14:04:11.121Z,100059.92
2019-04-18T14:06:37.959Z,100066.95
2019-04-18T14:09:06.520Z,100067.92
2019-04-18T14:11:33.947Z,100066.27
2019-04-18T14:14:00.797Z,100067.51
2019-04-18T14:16:27.920Z,100070.58
2019-04-18T14:18:54.951Z,100068.92
2019-04-18T14:21:21.931Z,100065.31
2019-04-18T14:23:51.162Z,100064.67
2019-04-18T14:26:17.747Z,100054.77
2019-04-18T14:28:44.603Z,100073.28
2019-04-18T14:31:11.743Z,100064.37
2019-04-18T14:33:38.799Z,99910.95
2019-04-18T14:36:05.894Z,100068.23
2019-04-18T14:38:32.987Z,100069.01
2019-04-18T14:41:01.053Z,100070.53
2019-04-18T14:43:28.158Z,100069.89
2019-04-18T14:45:54.982Z,100062.33
2019-04-18T14:48:22.186Z,100071.52
2019-04-18T14:50:49.135Z,100069.39
2019-04-18T14:53:16.090Z,100072.26
2019-04-18T14:55:43.702Z,100071.65
2019-04-18T14:58:11.025Z,100068.63
2019-04-18T15:00:43.699Z,100072.91
2019-04-18T15:03:07.856Z,100073.23
2019-04-18T15:05:35.732Z,100071.41
2019-04-18T15:08:03.346Z,100063.80
2019-04-18T15:10:31.625Z,100065.36
2019-04-18T15:12:59.349Z,100060.20
2019-04-18T15:15:26.435Z,99903.05
2019-04-18T15:17:53.288Z,100063.45
2019-04-18T15:20:20.475Z,100068.49
2019-04-18T15:22:47.307Z,100062.59
2019-04-18T15:25:15.390Z,100068.91
2019-04-18T15:27:42.404Z,100061.95
2019-04-18T15:30:09.682Z,100065.47
2019-04-18T15:32:36.579Z,100068.42
2019-04-18T15:35:05.401Z,100062.13
2019-04-18T15:37:32.270Z,100062.30
2019-04-18T15:39:59.379Z,100064.12
2019-04-18T15:42:26.969Z,100060.45
2019-04-18T15:44:55.611Z,100064.18
2019-04-18T15:47:24.538Z,100068.67
2019-04-18T15:49:52.068Z,100066.22
2019-04-18T15:52:18.949Z,100061.86
2019-04-18T15:54:45.667Z,100059.56
2019-04-18T15:57:12.937Z,100055.72
2019-04-18T15:59:40.683Z,100065.73
2019-04-18T16:02:07.753Z,100065.64
2019-04-18T16:04:37.004Z,100057.17
2019-04-18T16:07:04.770Z,100061.41
2019-04-18T16:09:32.821Z,100075.54
2019-04-18T16:11:59.602Z,100060.05
2019-04-18T16:14:35.780Z,100065.33
2019-04-18T16:17:02.610Z,100067.02
2019-04-18T16:19:29.379Z,100058.69
2019-04-18T16:21:56.804Z,100055.61
2019-04-18T16:24:24.133Z,100063.56
2019-04-18T16:26:51.832Z,100066.91
2019-04-18T16:29:19.070Z,100072.81
2019-04-18T16:31:46.370Z,100063.83
2019-04-18T16:34:13.301Z,100066.80
2019-04-18T16:36:40.405Z,100067.69
2019-04-18T16:39:07.172Z,100065.64
2019-04-18T16:41:34.538Z,100069.62
2019-04-18T16:44:02.802Z,100073.75
2019-04-18T16:46:29.692Z,100072.45
2019-04-18T16:48:56.411Z,100071.04
2019-04-18T16:51:23.364Z,100070.17
2019-04-18T16:53:50.139Z,100074.78
2019-04-18T16:56:17.734Z,100076.08
2019-04-18T16:58:45.298Z,100096.47
2019-04-18T17:01:12.215Z,100081.23
2019-04-18T17:03:51.100Z,99909.80
2019-04-18T17:06:08.222Z,100077.48
2019-04-18T17:08:35.535Z,100084.17
2019-04-18T17:11:02.509Z,100089.70
2019-04-18T17:13:29.252Z,100089.32
2019-04-18T17:15:56.385Z,100091.08
2019-04-18T17:18:23.242Z,100088.13
2019-04-18T17:20:50.007Z,100093.38
2019-04-18T17:23:20.051Z,100095.55
2019-04-18T17:25:47.097Z,100108.09
2019-04-18T17:28:17.504Z,100106.29
2019-04-18T17:30:43.818Z,100111.02
2019-04-18T17:33:10.658Z,100109.97
2019-04-18T17:35:48.315Z,100113.04
2019-04-18T17:38:32.569Z,100113.38
2019-04-18T17:40:45.806Z,100110.35
2019-04-18T17:43:10.366Z,100119.78
2019-04-18T17:45:39.806Z,100114.63
2019-04-18T17:48:07.455Z,100127.25
2019-04-18T17:50:38.858Z,100141.13
2019-04-18T17:53:18.925Z,100134.16
2019-04-18T17:55:45.984Z,100134.89
2019-04-18T17:58:01.330Z,100130.48
2019-04-18T18:00:29.334Z,100141.14
2019-04-18T18:02:57.918Z,100143.00
2019-04-18T18:05:28.043Z,100141.53
2019-04-18T18:07:54.133Z,100147.48
2019-04-18T18:10:25.788Z,100149.44
2019-04-18T18:12:52.368Z,100150.50
2019-04-18T18:15:53.330Z,100147.72
2019-04-18T18:18:25.799Z,100158.65
2019-04-18T18:20:57.241Z,100158.67
2019-04-18T18:23:21.772Z,100153.85
2019-04-18T18:25:48.770Z,100161.64
2019-04-18T18:28:20.905Z,100167.69
2019-04-18T18:30:46.369Z,100163.92
2019-04-18T18:33:18.796Z,100168.11
2019-04-18T18:35:59.381Z,100161.50
2019-04-18T18:38:20.353Z,100175.34
2019-04-18T18:40:49.078Z,100177.23
2019-04-18T18:43:19.537Z,100184.78
2019-04-18T18:45:43.510Z,100186.83
2019-04-18T18:48:10.994Z,100187.09
2019-04-18T18:50:38.339Z,100186.09
2019-04-18T18:53:05.638Z,100186.20
2019-04-18T18:55:32.915Z,100187.24
2019-04-18T18:57:59.914Z,100194.03
2019-04-18T19:00:28.729Z,100194.84
2019-04-18T19:02:59.361Z,100198.03
2019-04-18T19:05:41.058Z,100199.98
2019-04-18T19:08:09.814Z,100194.44
2019-04-18T19:10:55.501Z,100199.77
2019-04-18T19:13:14.532Z,100207.59
2019-04-18T19:15:43.419Z,100206.73
2019-04-18T19:17:50.926Z,100208.81
2019-04-18T19:20:19.229Z,100205.77
2019-04-18T19:22:46.118Z,100208.94
2019-04-18T19:25:12.944Z,100200.59
2019-04-18T19:27:46.094Z,100212.46
2019-04-18T19:30:12.926Z,100203.33
2019-04-18T19:32:41.754Z,100211.13
2019-04-18T19:35:25.255Z,100207.73
2019-04-18T19:37:54.118Z,100203.73
2019-04-18T19:40:37.537Z,100200.95
2019-04-18T19:42:35.855Z,100211.13
2019-04-18T19:45:06.980Z,100208.98
2019-04-18T19:47:32.309Z,100214.97
2019-04-18T19:49:59.617Z,100215.33
2019-04-18T19:52:31.715Z,100214.90
2019-04-18T19:54:57.118Z,100213.23
2019-04-18T19:57:24.992Z,100228.05
2019-04-18T19:59:52.429Z,100214.38
2019-04-18T20:02:19.273Z,100225.44
2019-04-18T20:04:50.000Z,100215.54
2019-04-18T20:07:31.407Z,100221.14
2019-04-18T20:09:54.582Z,100233.31
2019-04-18T20:12:26.475Z,100221.54
2019-04-18T20:14:42.385Z,100221.13
2019-04-18T20:17:11.996Z,100222.52
2019-04-18T20:19:38.036Z,100226.41
2019-04-18T20:22:07.560Z,100225.34
2019-04-18T20:24:33.871Z,100229.54
2019-04-18T20:27:01.487Z,100233.73
2019-04-18T20:29:36.251Z,100242.60
2019-04-18T20:31:58.891Z,100236.39
2019-04-18T20:34:28.578Z,100244.00
2019-04-18T20:37:09.808Z,100238.23
2019-04-18T20:39:46.362Z,100240.59
2019-04-18T20:44:36.075Z,100248.03
2019-04-18T20:47:00.572Z,100245.42
2019-04-18T20:49:39.595Z,100245.25
2019-04-18T20:51:57.785Z,100242.01
2019-04-18T20:54:34.146Z,100241.39
2019-04-18T20:56:47.372Z,100246.22
2019-04-18T20:59:19.170Z,100245.77
2019-04-18T21:01:43.451Z,100244.39
2019-04-18T21:04:16.311Z,100244.23
2019-04-18T21:06:49.429Z,100245.52
2019-04-18T21:09:19.311Z,100254.36
2019-04-18T21:11:37.892Z,100042.86
2019-04-18T21:14:05.346Z,100255.31
2019-04-18T21:16:38.930Z,100258.27
2019-04-18T21:19:01.807Z,100259.36
2019-04-18T21:21:28.641Z,100259.64
2019-04-18T21:23:59.446Z,100263.22
2019-04-18T21:26:27.193Z,100266.00
2019-04-18T21:28:57.875Z,100263.55
2019-04-18T21:31:22.681Z,100266.31
2019-04-18T21:33:53.955Z,100264.59
2019-04-18T21:36:21.879Z,100268.94
2019-04-18T21:38:54.858Z,100260.09
2019-04-18T21:41:18.101Z,100265.51
2019-04-18T21:47:27.234Z,100267.66
2019-04-18T21:49:55.179Z,100264.51
2019-04-18T21:52:22.587Z,100264.97
2019-04-18T21:54:50.604Z,100270.69
2019-04-18T21:57:25.908Z,100297.94
2019-04-18T21:59:55.991Z,100269.89
2019-04-18T22:02:22.145Z,100273.27
2019-04-18T22:04:47.077Z,100276.35
2019-04-18T22:07:25.452Z,100278.06
2019-04-18T22:09:47.333Z,100273.08
2019-04-18T22:12:12.246Z,100276.94
2019-04-18T22:14:41.407Z,100281.56
2019-04-18T22:17:09.546Z,100279.20
2019-04-18T22:19:37.618Z,100281.05
2019-04-18T22:22:05.540Z,100276.85
2019-04-18T22:24:33.473Z,100281.74
2019-04-18T22:27:08.419Z,100284.66
2019-04-18T22:29:31.685Z,100279.25
2019-04-18T22:32:02.862Z,100278.92
2019-04-18T22:34:29.119Z,100278.45
2019-04-18T22:36:59.780Z,100277.46
2019-04-18T22:39:28.117Z,100284.69
2019-04-18T22:41:54.600Z,100288.84
2019-04-18T22:44:24.774Z,100292.67
2019-04-18T22:46:55.325Z,100288.75
2019-04-18T22:49:22.680Z,100291.50
2019-04-18T22:51:52.420Z,100283.45
2019-04-18T22:54:21.933Z,100285.58
2019-04-18T22:56:53.178Z,100291.73
2019-04-18T22:59:20.893Z,100289.06
2019-04-18T23:01:55.554Z,100300.33
2019-04-18T23:04:20.653Z,100288.37
2019-04-18T23:06:46.388Z,100297.03
2019-04-18T23:09:17.052Z,100301.14
2019-04-18T23:11:50.197Z,100294.94
2019-04-18T23:14:15.413Z,100294.45
2019-04-18T23:16:45.536Z,100293.63
2019-04-18T23:19:13.635Z,100294.69
2019-04-18T23:21:43.479Z,100291.09
2019-04-18T23:24:11.516Z,100295.04
2019-04-18T23:26:47.722Z,100285.27
2019-04-18T23:29:11.318Z,100288.47
2019-04-18T23:31:47.220Z,100084.55
2019-04-18T23:34:10.107Z,100287.08
2019-04-18T23:36:43.662Z,100314.07
2019-04-18T23:39:16.424Z,100293.43
2019-04-18T23:41:38.338Z,100295.38
2019-04-18T23:44:11.033Z,100065.09
2019-04-18T23:46:36.106Z,100296.58
2019-04-18T23:49:07.888Z,100302.73
2019-04-18T23:51:38.581Z,100297.73
2019-04-18T23:54:03.255Z,100296.27
2019-04-18T23:56:38.820Z,100293.86
2019-04-18T23:59:00.927Z,100291.33
